createdAt,value
2022-10-09T00:01:25.434Z,6.30
2022-10-09T00:03:56.678Z,9.57
2022-10-09T00:06:27.152Z,5.05
2022-10-09T00:08:56.184Z,5.15
2022-10-09T00:11:28.205Z,3.63
2022-10-09T00:13:56.993Z,9.25
2022-10-09T00:16:26.156Z,5.90
2022-10-09T00:18:54.773Z,4.35
2022-10-09T00:21:25.492Z,4.60
2022-10-09T00:23:56.011Z,7.68
2022-10-09T00:26:27.385Z,7.88
2022-10-09T00:28:56.668Z,6.95
2022-10-09T00:31:25.007Z,6.40
2022-10-09T00:33:53.266Z,4.00
2022-10-09T00:36:24.102Z,3.50
2022-10-09T00:38:52.587Z,5.50
2022-10-09T00:41:23.671Z,5.40
2022-10-09T00:43:55.106Z,5.15
2022-10-09T00:46:37.782Z,4.97
2022-10-09T00:49:15.928Z,3.00
2022-10-09T00:51:47.672Z,5.05
2022-10-09T00:54:18.597Z,1.90
2022-10-09T00:56:46.944Z,3.40
2022-10-09T00:59:18.048Z,5.00
2022-10-09T01:01:46.550Z,2.15
2022-10-09T01:04:14.989Z,8.88
2022-10-09T01:06:57.668Z,5.95
2022-10-09T01:12:02.350Z,18.60
2022-10-09T01:14:39.470Z,31.42
2022-10-09T01:17:11.602Z,30.15
2022-10-09T01:19:51.532Z,32.17
2022-10-09T01:22:38.721Z,31.42
2022-10-09T01:25:09.024Z,18.83
2022-10-09T01:27:40.025Z,14.82
2022-10-09T01:30:11.244Z,15.52
2022-10-09T01:32:44.356Z,12.43
2022-10-09T01:35:13.850Z,11.88
2022-10-09T01:37:45.581Z,6.68
2022-10-09T01:40:17.555Z,9.75
2022-10-09T01:42:48.035Z,5.97
2022-10-09T01:45:17.400Z,5.07
2022-10-09T01:47:45.605Z,3.88
2022-10-09T01:50:23.038Z,5.60
2022-10-09T01:52:54.786Z,5.47
2022-10-09T01:55:35.526Z,8.90
2022-10-09T01:58:12.060Z,8.13
2022-10-09T02:00:46.666Z,7.85
2022-10-09T02:03:17.750Z,4.15
2022-10-09T02:05:49.952Z,3.47
2022-10-09T02:08:21.644Z,4.68
2022-10-09T02:10:54.341Z,7.82
2022-10-09T02:13:24.958Z,4.40
2022-10-09T02:15:58.214Z,4.15
2022-10-09T02:18:36.846Z,6.07
2022-10-09T02:21:11.824Z,2.63
2022-10-09T02:23:42.926Z,6.32
2022-10-09T02:26:12.058Z,5.55
2022-10-09T02:28:45.825Z,6.72
2022-10-09T02:31:21.387Z,5.72
2022-10-09T02:33:56.385Z,2.72
2022-10-09T02:36:25.515Z,2.75
2022-10-09T02:38:54.493Z,5.50
2022-10-09T02:41:22.936Z,3.33
2022-10-09T02:43:52.794Z,9.07
2022-10-09T02:46:21.635Z,11.20
2022-10-09T02:48:49.887Z,7.30
2022-10-09T02:51:19.175Z,6.90
2022-10-09T02:53:47.927Z,5.07
2022-10-09T02:56:16.166Z,2.83
2022-10-09T02:58:44.657Z,3.88
2022-10-09T03:01:15.233Z,2.03
2022-10-09T03:03:43.587Z,4.35
2022-10-09T03:06:13.938Z,2.55
2022-10-09T03:08:44.293Z,5.97
2022-10-09T03:11:14.170Z,7.97
2022-10-09T03:13:42.842Z,5.38
2022-10-09T03:16:15.218Z,5.18
2022-10-09T03:18:44.891Z,1.38
2022-10-09T03:21:14.929Z,5.82
2022-10-09T03:23:43.961Z,4.57
2022-10-09T03:26:14.355Z,4.85
2022-10-09T03:28:44.557Z,7.03
2022-10-09T03:31:27.638Z,2.67
2022-10-09T03:34:03.397Z,2.05
2022-10-09T03:36:31.592Z,6.95
2022-10-09T03:38:59.794Z,6.93
2022-10-09T03:41:28.214Z,2.60
2022-10-09T03:43:56.827Z,3.25
2022-10-09T03:46:26.430Z,6.90
2022-10-09T03:48:55.098Z,4.05
2022-10-09T03:51:23.308Z,5.47
2022-10-09T03:53:52.043Z,3.03
2022-10-09T03:56:20.453Z,3.13
2022-10-09T03:58:48.697Z,9.18
2022-10-09T04:01:17.269Z,5.25
2022-10-09T04:03:46.920Z,3.88
2022-10-09T04:06:15.193Z,3.80
2022-10-09T04:08:43.637Z,0.88
2022-10-09T04:11:12.125Z,4.57
2022-10-09T04:13:40.583Z,3.97
2022-10-09T04:16:12.771Z,1.90
2022-10-09T04:18:41.734Z,4.07
2022-10-09T04:21:13.069Z,2.08
2022-10-09T04:23:41.861Z,5.05
2022-10-09T04:26:14.012Z,7.57
2022-10-09T04:28:42.439Z,7.20
2022-10-09T04:31:11.156Z,2.92
2022-10-09T04:33:39.369Z,3.97
2022-10-09T04:36:08.480Z,6.35
2022-10-09T04:38:38.305Z,3.25
2022-10-09T04:41:08.886Z,9.20
2022-10-09T04:43:37.510Z,4.28
2022-10-09T04:46:07.314Z,10.40
2022-10-09T04:48:39.489Z,8.75
2022-10-09T04:51:08.575Z,6.93
2022-10-09T04:53:40.026Z,1.60
2022-10-09T04:56:10.517Z,5.70
2022-10-09T04:58:40.733Z,3.20
2022-10-09T05:01:10.264Z,2.90
2022-10-09T05:03:39.107Z,3.50
2022-10-09T05:06:10.385Z,4.05
2022-10-09T05:08:40.837Z,5.93
2022-10-09T05:11:11.777Z,6.05
2022-10-09T05:13:42.152Z,9.65
2022-10-09T05:16:12.193Z,2.42
2022-10-09T05:18:43.522Z,7.25
2022-10-09T05:21:11.824Z,3.47
2022-10-09T05:23:42.013Z,5.88
2022-10-09T05:26:14.587Z,4.47
2022-10-09T05:28:43.479Z,7.60
2022-10-09T05:31:16.441Z,5.97
2022-10-09T05:33:44.701Z,1.95
2022-10-09T05:36:13.338Z,5.50
2022-10-09T05:38:42.985Z,2.83
2022-10-09T05:41:13.132Z,3.60
2022-10-09T05:43:43.522Z,2.15
2022-10-09T05:46:14.121Z,5.80
2022-10-09T05:48:44.774Z,4.10
2022-10-09T05:51:16.206Z,5.22
2022-10-09T05:53:47.100Z,5.25
2022-10-09T05:56:18.139Z,8.23
2022-10-09T05:58:50.571Z,1.33
2022-10-09T06:01:19.213Z,5.82
2022-10-09T06:03:50.152Z,4.53
2022-10-09T06:06:19.456Z,7.25
2022-10-09T06:08:49.363Z,3.75
2022-10-09T06:11:19.585Z,7.07
2022-10-09T06:13:49.377Z,7.13
2022-10-09T06:16:18.961Z,11.70
2022-10-09T06:18:49.802Z,4.15
2022-10-09T06:21:18.166Z,6.53
2022-10-09T06:23:51.968Z,6.50
2022-10-09T06:26:21.102Z,3.10
2022-10-09T06:28:50.542Z,6.03
2022-10-09T06:31:21.794Z,4.47
2022-10-09T06:33:52.019Z,4.15
2022-10-09T06:36:22.642Z,9.13
2022-10-09T06:38:53.972Z,3.58
2022-10-09T06:41:24.738Z,7.70
2022-10-09T06:43:54.967Z,10.98
2022-10-09T06:46:24.782Z,7.55
2022-10-09T06:48:54.120Z,5.25
2022-10-09T06:51:24.655Z,7.53
2022-10-09T06:53:56.391Z,3.70
2022-10-09T06:56:26.175Z,4.90
2022-10-09T06:58:54.659Z,5.72
2022-10-09T07:01:25.173Z,3.67
2022-10-09T07:03:56.367Z,5.85
2022-10-09T07:06:26.273Z,3.22
2022-10-09T07:08:58.342Z,8.88
2022-10-09T07:11:28.690Z,8.25
2022-10-09T07:13:58.426Z,3.92
2022-10-09T07:16:29.084Z,4.55
2022-10-09T07:18:58.082Z,3.35
2022-10-09T07:21:26.607Z,5.78
2022-10-09T07:23:56.345Z,7.28
2022-10-09T07:26:27.315Z,7.07
2022-10-09T07:28:55.741Z,5.85
2022-10-09T07:31:24.584Z,4.63
2022-10-09T07:33:55.455Z,3.03
2022-10-09T07:36:23.968Z,4.43
2022-10-09T07:38:53.449Z,12.95
2022-10-09T07:41:24.466Z,11.68
2022-10-09T07:43:52.836Z,4.63
2022-10-09T07:46:22.877Z,2.67
2022-10-09T07:48:51.245Z,6.53
2022-10-09T07:51:20.974Z,9.82
2022-10-09T07:53:49.671Z,3.17
2022-10-09T07:56:20.140Z,4.80
2022-10-09T07:58:52.704Z,8.88
2022-10-09T08:01:21.842Z,3.13
2022-10-09T08:03:50.513Z,6.50
2022-10-09T08:06:19.737Z,6.78
2022-10-09T08:08:51.161Z,5.90
2022-10-09T08:11:20.748Z,8.93
2022-10-09T08:13:50.773Z,4.25
2022-10-09T08:16:21.371Z,6.05
2022-10-09T08:18:49.789Z,4.00
2022-10-09T08:21:20.286Z,4.13
2022-10-09T08:23:48.535Z,5.38
2022-10-09T08:26:19.129Z,4.05
2022-10-09T08:28:52.153Z,4.80
2022-10-09T08:31:22.270Z,6.20
2022-10-09T08:33:54.548Z,7.60
2022-10-09T08:36:23.778Z,7.63
2022-10-09T08:38:52.482Z,6.28
2022-10-09T08:41:35.909Z,5.63
2022-10-09T08:44:06.857Z,7.15
2022-10-09T08:46:46.209Z,5.07
2022-10-09T08:49:22.865Z,4.65
2022-10-09T08:51:51.670Z,5.10
2022-10-09T08:54:26.310Z,6.13
2022-10-09T08:56:54.802Z,5.43
2022-10-09T08:59:23.023Z,5.75
2022-10-09T09:02:07.064Z,4.40
2022-10-09T09:05:00.599Z,9.43
2022-10-09T09:07:38.124Z,3.45
2022-10-09T09:10:15.662Z,4.00
2022-10-09T09:12:52.093Z,2.30
2022-10-09T09:15:36.301Z,7.88
2022-10-09T09:18:20.976Z,5.65
2022-10-09T09:20:53.514Z,6.75
2022-10-09T09:23:26.727Z,7.30
2022-10-09T09:25:55.330Z,1.65
2022-10-09T09:28:27.878Z,4.88
2022-10-09T09:31:01.613Z,4.88
2022-10-09T09:33:44.419Z,3.58
2022-10-09T09:36:23.358Z,7.40
2022-10-09T09:39:44.263Z,2.22
2022-10-09T09:41:42.368Z,7.13
2022-10-09T09:44:12.118Z,3.03
2022-10-09T09:46:41.362Z,4.00
2022-10-09T09:49:21.826Z,5.22
2022-10-09T09:51:51.271Z,5.85
2022-10-09T09:54:23.190Z,5.35
2022-10-09T09:57:11.825Z,7.68
2022-10-09T09:59:43.498Z,5.22
2022-10-09T10:02:18.161Z,5.82
2022-10-09T10:04:53.015Z,5.82
2022-10-09T10:07:32.739Z,2.50
2022-10-09T10:10:06.740Z,5.25
2022-10-09T10:12:35.001Z,6.20
2022-10-09T10:15:03.393Z,2.97
2022-10-09T10:17:33.627Z,5.20
2022-10-09T10:20:07.157Z,6.53
2022-10-09T10:22:36.917Z,6.30
2022-10-09T10:25:05.847Z,2.72
2022-10-09T10:27:40.218Z,2.40
2022-10-09T10:30:15.778Z,2.97
2022-10-09T10:32:52.574Z,7.22
2022-10-09T10:35:25.900Z,4.78
2022-10-09T10:38:00.463Z,4.90
2022-10-09T10:40:32.832Z,3.10
2022-10-09T10:43:20.951Z,4.40
2022-10-09T10:45:59.506Z,4.88
2022-10-09T10:48:30.740Z,7.45
2022-10-09T10:51:10.896Z,6.63
2022-10-09T10:53:56.606Z,2.17
2022-10-09T10:56:31.170Z,8.63
2022-10-09T10:59:14.485Z,2.97
2022-10-09T11:01:53.841Z,5.55
2022-10-09T11:04:38.224Z,5.57
2022-10-09T11:07:19.378Z,4.53
2022-10-09T11:09:55.875Z,8.90
2022-10-09T11:12:47.702Z,2.95
2022-10-09T11:15:23.605Z,5.53
2022-10-09T11:18:00.614Z,3.28
2022-10-09T11:20:46.384Z,3.25
2022-10-09T11:23:31.009Z,1.45
2022-10-09T11:26:07.436Z,1.98
2022-10-09T11:28:44.513Z,1.73
2022-10-09T11:31:16.764Z,4.43
2022-10-09T11:33:49.930Z,4.00
2022-10-09T11:36:23.940Z,2.05
2022-10-09T11:38:59.435Z,0.88
2022-10-09T11:41:30.045Z,1.38
2022-10-09T11:44:10.997Z,4.05
2022-10-09T11:46:46.054Z,9.57
2022-10-09T11:49:24.472Z,2.95
2022-10-09T11:51:58.664Z,3.50
2022-10-09T11:54:30.386Z,3.65
2022-10-09T11:57:00.203Z,3.22
2022-10-09T11:59:31.356Z,1.75
2022-10-09T12:02:01.493Z,4.90
2022-10-09T12:04:54.095Z,4.28
2022-10-09T12:07:33.951Z,4.30
2022-10-09T12:10:08.470Z,1.02
2022-10-09T12:12:38.943Z,6.63
2022-10-09T12:15:28.724Z,1.30
2022-10-09T12:17:57.162Z,5.47
2022-10-09T12:20:27.290Z,5.00
2022-10-09T12:23:25.349Z,1.38
2022-10-09T12:25:51.797Z,0.63
2022-10-09T12:28:29.158Z,1.50
2022-10-09T12:30:59.163Z,0.80
2022-10-09T12:33:35.106Z,6.78
2022-10-09T12:36:14.255Z,1.83
2022-10-09T12:38:43.003Z,4.00
2022-10-09T12:41:21.828Z,2.60
2022-10-09T12:43:52.295Z,3.05
2022-10-09T12:46:30.128Z,4.68
2022-10-09T12:48:59.490Z,4.40
2022-10-09T12:51:29.999Z,2.10
2022-10-09T12:53:58.228Z,2.92
2022-10-09T12:56:31.617Z,1.48
2022-10-09T12:59:01.108Z,1.30
2022-10-09T13:01:30.006Z,1.75
2022-10-09T13:04:00.323Z,2.35
2022-10-09T13:06:32.072Z,2.20
2022-10-09T13:09:04.081Z,4.30
2022-10-09T13:11:38.105Z,1.67
2022-10-09T13:14:06.552Z,6.03
2022-10-09T13:16:42.048Z,1.45
2022-10-09T13:19:23.367Z,1.77
2022-10-09T13:22:09.091Z,1.42
2022-10-09T13:24:37.241Z,2.42
2022-10-09T13:27:07.145Z,1.20
2022-10-09T13:29:35.604Z,2.00
2022-10-09T13:32:03.846Z,1.25
2022-10-09T13:34:32.053Z,1.38
2022-10-09T13:37:00.668Z,2.03
2022-10-09T13:39:29.939Z,3.03
2022-10-09T13:42:00.390Z,2.30
2022-10-09T13:44:30.666Z,2.38
2022-10-09T13:46:58.970Z,3.03
2022-10-09T13:49:27.128Z,2.17
2022-10-09T13:51:55.370Z,1.13
2022-10-09T13:54:23.599Z,1.02
2022-10-09T13:56:52.045Z,5.15
2022-10-09T13:59:20.143Z,2.20
2022-10-09T14:01:50.381Z,2.38
2022-10-09T14:04:19.465Z,1.02
2022-10-09T14:06:47.864Z,0.90
2022-10-09T14:09:16.714Z,1.98
2022-10-09T14:11:44.918Z,4.00
2022-10-09T14:14:13.441Z,1.02
2022-10-09T14:16:41.808Z,1.65
2022-10-09T14:19:12.341Z,4.10
2022-10-09T14:21:41.163Z,0.82
2022-10-09T14:24:09.386Z,2.88
2022-10-09T14:26:39.033Z,1.23
2022-10-09T14:29:07.306Z,4.07
2022-10-09T14:31:36.128Z,1.25
2022-10-09T14:34:04.404Z,3.10
2022-10-09T14:36:34.155Z,3.55
2022-10-09T14:39:02.426Z,2.55
2022-10-09T14:41:35.510Z,4.32
2022-10-09T14:44:06.262Z,3.65
2022-10-09T14:46:37.633Z,2.08
2022-10-09T14:49:08.478Z,0.33
2022-10-09T14:51:40.148Z,2.88
2022-10-09T14:54:10.379Z,2.55
2022-10-09T14:56:39.165Z,3.42
2022-10-09T14:59:07.576Z,3.40
2022-10-09T15:01:36.086Z,3.03
2022-10-09T15:04:06.363Z,2.85
2022-10-09T15:06:35.733Z,1.73
2022-10-09T15:09:06.292Z,3.88
2022-10-09T15:11:36.347Z,2.30
2022-10-09T15:14:05.845Z,0.98
2022-10-09T15:16:34.035Z,1.42
2022-10-09T15:19:02.420Z,1.10
2022-10-09T15:21:32.254Z,5.00
2022-10-09T15:24:01.983Z,1.73
2022-10-09T15:26:34.113Z,1.38
2022-10-09T15:29:03.542Z,1.65
2022-10-09T15:31:33.327Z,1.90
2022-10-09T15:34:02.574Z,4.35
2022-10-09T15:36:32.241Z,4.93
2022-10-09T15:39:03.234Z,1.17
2022-10-09T15:41:35.113Z,1.55
2022-10-09T15:44:05.775Z,4.20
2022-10-09T15:46:34.082Z,4.95
2022-10-09T15:49:02.583Z,1.60
2022-10-09T15:51:33.250Z,2.00
2022-10-09T15:54:02.115Z,2.60
2022-10-09T15:56:35.998Z,5.00
2022-10-09T15:59:07.284Z,2.42
2022-10-09T16:01:35.891Z,6.15
2022-10-09T16:04:04.987Z,3.22
2022-10-09T16:06:33.161Z,5.75
2022-10-09T16:09:04.055Z,5.38
2022-10-09T16:11:34.799Z,3.30
2022-10-09T16:14:04.584Z,3.28
2022-10-09T16:16:32.869Z,3.72
2022-10-09T16:19:03.828Z,3.10
2022-10-09T16:21:32.183Z,3.85
2022-10-09T16:24:01.632Z,3.50
2022-10-09T16:26:30.824Z,2.15
2022-10-09T16:29:01.551Z,3.40
2022-10-09T16:31:34.790Z,6.72
2022-10-09T16:34:03.671Z,4.75
2022-10-09T16:36:32.041Z,3.22
2022-10-09T16:39:00.528Z,7.13
2022-10-09T16:41:28.814Z,6.53
2022-10-09T16:44:00.015Z,2.45
2022-10-09T16:46:31.769Z,1.88
2022-10-09T16:49:01.989Z,3.17
2022-10-09T16:51:32.418Z,2.08
2022-10-09T16:54:02.975Z,3.97
2022-10-09T16:56:33.483Z,3.65
2022-10-09T16:59:06.288Z,5.75
2022-10-09T17:01:37.933Z,1.65
2022-10-09T17:04:06.427Z,2.40
2022-10-09T17:06:34.955Z,4.25
2022-10-09T17:09:03.665Z,3.92
2022-10-09T17:11:32.488Z,4.30
2022-10-09T17:14:01.058Z,6.50
2022-10-09T17:16:34.162Z,5.22
2022-10-09T17:19:04.695Z,6.65
2022-10-09T17:21:34.699Z,7.93
2022-10-09T17:24:05.701Z,3.45
2022-10-09T17:26:33.911Z,1.85
2022-10-09T17:29:02.951Z,5.68
2022-10-09T17:31:31.691Z,4.13
2022-10-09T17:34:01.716Z,7.28
2022-10-09T17:36:35.263Z,7.60
2022-10-09T17:39:04.549Z,4.18
2022-10-09T17:41:32.824Z,3.85
2022-10-09T17:44:01.312Z,6.03
2022-10-09T17:46:30.927Z,7.03
2022-10-09T17:49:00.259Z,11.82
2022-10-09T17:51:32.283Z,4.65
2022-10-09T17:54:04.039Z,2.90
2022-10-09T17:56:34.758Z,4.63
2022-10-09T17:59:03.970Z,4.40
2022-10-09T18:01:32.905Z,4.43
2022-10-09T18:04:01.561Z,11.35
2022-10-09T18:06:34.598Z,5.95
2022-10-09T18:09:03.869Z,3.55
2022-10-09T18:11:32.386Z,5.03
2022-10-09T18:14:00.736Z,8.18
2022-10-09T18:16:35.886Z,6.53
2022-10-09T18:19:05.911Z,5.75
2022-10-09T18:21:36.113Z,6.65
2022-10-09T18:24:04.670Z,5.80
2022-10-09T18:26:33.007Z,5.00
2022-10-09T18:29:01.916Z,7.32
2022-10-09T18:31:31.353Z,5.57
2022-10-09T18:34:01.018Z,3.25
2022-10-09T18:36:33.697Z,9.57
2022-10-09T18:39:06.396Z,6.95
2022-10-09T18:41:35.491Z,5.78
2022-10-09T18:44:04.503Z,7.63
2022-10-09T18:46:38.969Z,7.97
2022-10-09T18:49:09.653Z,6.28
2022-10-09T18:51:39.214Z,8.07
2022-10-09T18:54:13.286Z,8.65
2022-10-09T18:56:44.580Z,10.15
2022-10-09T18:59:16.176Z,14.38
2022-10-09T19:01:44.349Z,6.00
2022-10-09T19:04:13.194Z,6.25
2022-10-09T19:06:41.483Z,6.68
2022-10-09T19:09:11.245Z,5.75
2022-10-09T19:11:39.568Z,6.03
2022-10-09T19:14:08.036Z,10.15
2022-10-09T19:16:36.751Z,5.22
2022-10-09T19:19:05.441Z,4.68
2022-10-09T19:21:33.632Z,11.95
2022-10-09T19:24:04.544Z,8.48
2022-10-09T19:26:35.509Z,6.13
2022-10-09T19:29:04.367Z,12.25
2022-10-09T19:31:33.876Z,5.95
2022-10-09T19:34:02.795Z,12.88
2022-10-09T19:36:34.381Z,8.57
2022-10-09T19:39:03.078Z,9.68
2022-10-09T19:41:31.659Z,12.00
2022-10-09T19:44:01.776Z,7.43
2022-10-09T19:46:30.104Z,7.30
2022-10-09T19:48:58.767Z,14.52
2022-10-09T19:51:28.109Z,9.60
2022-10-09T19:53:58.988Z,8.82
2022-10-09T19:56:29.926Z,12.60
2022-10-09T19:58:59.462Z,11.35
2022-10-09T20:01:29.330Z,9.27
2022-10-09T20:03:59.857Z,10.27
2022-10-09T20:06:29.099Z,8.02
2022-10-09T20:08:57.937Z,7.65
2022-10-09T20:11:27.482Z,18.77
2022-10-09T20:13:56.596Z,15.13
2022-10-09T20:16:27.959Z,8.32
2022-10-09T20:18:57.611Z,7.90
2022-10-09T20:21:26.785Z,9.75
2022-10-09T20:23:58.173Z,7.85
2022-10-09T20:26:28.255Z,13.05
2022-10-09T20:28:56.812Z,9.57
2022-10-09T20:31:27.074Z,10.85
2022-10-09T20:33:57.821Z,6.90
2022-10-09T20:36:28.457Z,7.97
2022-10-09T20:38:57.616Z,5.93
2022-10-09T20:41:27.680Z,4.03
2022-10-09T20:43:57.591Z,8.98
2022-10-09T20:46:28.060Z,10.65
2022-10-09T20:48:58.068Z,10.20
2022-10-09T20:51:27.550Z,10.20
2022-10-09T20:53:56.794Z,8.38
2022-10-09T20:56:27.188Z,8.43
2022-10-09T20:58:55.770Z,18.48
2022-10-09T21:01:24.741Z,10.70
2022-10-09T21:03:53.335Z,11.85
2022-10-09T21:06:23.424Z,18.30
2022-10-09T21:08:51.712Z,6.65
2022-10-09T21:11:20.853Z,7.90
2022-10-09T21:13:50.005Z,7.53
2022-10-09T21:16:20.735Z,14.25
2022-10-09T21:18:48.972Z,11.38
2022-10-09T21:21:19.298Z,18.63
2022-10-09T21:23:52.033Z,15.68
2022-10-09T21:26:21.926Z,8.50
2022-10-09T21:28:52.387Z,6.88
2022-10-09T21:31:26.083Z,12.50
2022-10-09T21:33:54.308Z,13.80
2022-10-09T21:36:29.627Z,11.45
2022-10-09T21:38:59.774Z,8.10
2022-10-09T21:41:28.830Z,12.48
2022-10-09T21:43:57.317Z,15.02
2022-10-09T21:46:25.724Z,23.20
2022-10-09T21:48:54.149Z,17.77
2022-10-09T21:51:22.325Z,4.72
2022-10-09T21:53:51.056Z,16.00
2022-10-09T21:56:20.928Z,7.65
2022-10-09T21:58:49.256Z,14.18
2022-10-09T22:01:17.799Z,8.52
2022-10-09T22:03:46.349Z,10.35
2022-10-09T22:06:19.244Z,27.80
2022-10-09T22:08:48.077Z,17.65
2022-10-09T22:11:17.618Z,20.42
2022-10-09T22:13:47.303Z,16.33
2022-10-09T22:16:16.904Z,17.33
2022-10-09T22:18:45.189Z,18.08
2022-10-09T22:21:15.962Z,6.80
2022-10-09T22:23:44.752Z,10.20
2022-10-09T22:26:15.066Z,19.15
2022-10-09T22:28:43.469Z,15.50
2022-10-09T22:31:16.863Z,13.85
2022-10-09T22:33:45.645Z,18.45
2022-10-09T22:36:15.704Z,9.48
2022-10-09T22:38:45.705Z,16.67
2022-10-09T22:41:16.063Z,14.60
2022-10-09T22:43:46.448Z,19.30
2022-10-09T22:46:17.124Z,35.85
2022-10-09T22:48:46.333Z,24.67
2022-10-09T22:51:17.024Z,25.67
2022-10-09T22:53:46.218Z,25.83
2022-10-09T22:56:16.813Z,10.18
2022-10-09T22:58:45.013Z,19.00
2022-10-09T23:01:17.356Z,14.48
2022-10-09T23:06:16.408Z,23.70
2022-10-09T23:08:45.956Z,21.13
2022-10-09T23:11:15.148Z,23.85
2022-10-09T23:13:43.726Z,31.98
2022-10-09T23:16:14.375Z,29.92
2022-10-09T23:18:44.222Z,35.45
2022-10-09T23:21:14.768Z,38.50
2022-10-09T23:23:44.617Z,21.38
2022-10-09T23:26:15.417Z,29.80
2022-10-09T23:28:44.687Z,27.85
2022-10-09T23:31:15.379Z,22.05
2022-10-09T23:33:45.877Z,45.85
2022-10-09T23:36:17.148Z,30.65
2022-10-09T23:38:45.451Z,41.97
2022-10-09T23:41:15.990Z,36.28
2022-10-09T23:43:45.631Z,34.85
2022-10-09T23:46:16.206Z,48.83
2022-10-09T23:48:46.886Z,34.13
2022-10-09T23:51:16.265Z,37.95
2022-10-09T23:53:45.010Z,55.28
2022-10-09T23:56:20.949Z,53.42
2022-10-09T23:58:49.427Z,41.20
